This is the latest recevied weather packets stored in our database for station/object N0MR. If no packets are shown the sender has not sent any weather packets the latest 10 day(s).
| Time | Temp. | Humidity | Pressure | Rain* | Wind** | Luminosity | Snow |
|---|---|---|---|---|---|---|---|
| 1787862966 | 22.78° C | 50% | 1016.5 hPa | 0 mm | - | - | - |
| 1787862364 | 22.78° C | 50% | 1016.5 hPa | 0 mm | - | - | - |
| 1787861765 | 22.78° C | 50% | 1016.5 hPa | 0 mm | - | - | - |
| 1787861164 | 22.78° C | 50% | 1016.5 hPa | 0 mm | - | - | - |
| 1787860565 | 22.78° C | 50% | 1016.5 hPa | 0 mm | - | - | - |
| 1787859963 | 23.33° C | 49% | 1016.6 hPa | 0 mm | - | - | - |
| 1787859365 | 23.33° C | 49% | 1016.6 hPa | 0 mm | - | - | - |
| 1787858765 | 22.78° C | 52% | 1016.7 hPa | 0 mm | - | - | - |
| 1787858164 | 22.78° C | 52% | 1016.7 hPa | 0 mm | - | - | - |
| 1787857564 | 22.78° C | 50% | 1016.8 hPa | 0 mm | - | - | - |
| 1787856964 | 22.78° C | 50% | 1016.8 hPa | 0 mm | - | - | - |
| 1787856364 | 22.78° C | 50% | 1016.7 hPa | 0 mm | - | - | - |
| 1787855766 | 22.78° C | 50% | 1016.7 hPa | 0 mm | - | - | - |
| 1787855164 | 23.33° C | 48% | 1016.8 hPa | 0 mm | - | - | - |
| 1787854564 | 23.33° C | 48% | 1016.8 hPa | 0 mm | - | - | - |
| 1787853966 | 21.67° C | 55% | 1016.8 hPa | 0 mm | - | - | - |
| 1787853365 | 21.67° C | 55% | 1016.8 hPa | 0 mm | - | - | - |
| 1787852765 | 22.22° C | 51% | 1016.9 hPa | 0 mm | - | - | - |
| 1787852168 | 22.22° C | 51% | 1016.9 hPa | 0 mm | - | - | - |
| 1787851564 | 21.67° C | 59% | 1016.8 hPa | 0 mm | - | - | - |
| 1787850964 | 21.11° C | 58% | 1017 hPa | 0 mm | - | - | - |
| 1787850365 | 21.11° C | 58% | 1017 hPa | 0 mm | - | - | - |
| 1787849766 | 20.56° C | 62% | 1016.9 hPa | 0 mm | - | - | - |
| 1787849166 | 20.56° C | 62% | 1016.9 hPa | 0 mm | - | - | - |
| 1787847366 | 20.56° C | 65% | 1016.8 hPa | 0 mm | - | - | - |
* Rain latest hour (hover to see other rain measurements)
** Current wind speed in m/s (hover to see current wind gust speed)